Time;durP1;ratioP1;P1;durP2;ratioP2;P2;SDS_P1;SDS_P2;PMS_P1;PMS_P2;Temp;Humidity;BMP_temperature;BMP_pressure;BME280_temperature;BME280_humidity;BME280_pressure;Samples;Min_cycle;Max_cycle;Signal;HPM_P1;HPM_P2
2022/10/14 00:01:15;;;;;;;18.42;16.23;;;11.50;99.90;;;;;;4944751;28;20052;-85
2022/10/14 00:03:41;;;;;;;21.73;16.13;;;11.40;99.90;;;;;;4924071;29;20097;-88
2022/10/14 00:06:19;;;;;;;124.10;19.33;;;11.30;99.90;;;;;;4918788;29;20040;-86
2022/10/14 00:08:48;;;;;;;20.17;15.73;;;11.30;99.90;;;;;;4934229;29;20044;-87
2022/10/14 00:11:17;;;;;;;15.63;12.52;;;11.30;99.90;;;;;;4899309;29;20043;-88
2022/10/14 00:13:44;;;;;;;11.20;10.18;;;11.10;99.90;;;;;;4903976;29;20043;-87
2022/10/14 00:16:23;;;;;;;9.63;8.63;;;11.10;99.90;;;;;;4930592;29;20036;-87
2022/10/14 00:18:49;;;;;;;15.07;12.60;;;11.00;99.90;;;;;;4932324;29;20043;-86
2022/10/14 00:21:18;;;;;;;17.80;12.38;;;11.00;99.90;;;;;;4919334;29;20048;-87
2022/10/14 00:23:46;;;;;;;145.00;14.45;;;11.00;99.90;;;;;;4932902;29;20464;-85
2022/10/14 00:26:23;;;;;;;343.25;19.95;;;11.50;99.90;;;;;;4911484;29;20072;-85
2022/10/14 00:29:00;;;;;;;245.65;15.75;;;11.00;99.90;;;;;;4929936;29;20059;-87
2022/10/14 00:31:27;;;;;;;225.38;16.15;;;11.00;99.90;;;;;;4902924;29;20040;-87
2022/10/14 00:33:53;;;;;;;228.75;16.77;;;11.10;99.90;;;;;;4943682;28;20805;-87
2022/10/14 00:36:21;;;;;;;152.05;16.38;;;11.10;99.90;;;;;;4934323;29;20070;-87
2022/10/14 00:38:47;;;;;;;215.18;18.30;;;11.40;99.90;;;;;;4935720;29;20060;-88
2022/10/14 00:41:16;;;;;;;212.50;16.40;;;11.10;99.90;;;;;;4921932;29;20660;-87
2022/10/14 00:43:59;;;;;;;180.52;16.80;;;11.10;99.90;;;;;;4918002;29;20043;-88
2022/10/14 00:46:30;;;;;;;186.23;15.40;;;11.10;99.90;;;;;;4934730;29;20747;-87
2022/10/14 00:49:01;;;;;;;151.48;15.45;;;11.10;99.90;;;;;;4904178;29;20043;-88
2022/10/14 00:51:31;;;;;;;102.70;14.57;;;11.20;99.90;;;;;;4950053;28;20050;-88
2022/10/14 00:54:21;;;;;;;141.25;14.68;;;11.20;99.90;;;;;;4948934;28;20050;-88
2022/10/14 00:56:52;;;;;;;96.80;15.70;;;11.10;99.90;;;;;;4929480;29;20053;-85
2022/10/14 00:59:19;;;;;;;39.50;13.27;;;11.00;99.90;;;;;;4921215;29;20139;-86
2022/10/14 01:01:44;;;;;;;73.88;14.05;;;11.10;99.90;;;;;;4935379;29;20054;-86
2022/10/14 01:04:10;;;;;;;95.07;14.95;;;11.10;99.90;;;;;;4931627;29;20069;-88
2022/10/14 01:07:10;;;;;;;114.45;15.73;;;11.10;99.90;;;;;;4932857;29;20047;-88
2022/10/14 01:10:06;;;;;;;140.05;15.45;;;11.10;99.90;;;;;;4928903;29;20075;-88
2022/10/14 01:13:03;;;;;;;155.10;16.10;;;11.10;99.90;;;;;;4933462;29;20040;-88
2022/10/14 01:15:50;;;;;;;100.85;14.63;;;11.10;99.90;;;;;;4943352;28;20078;-88
2022/10/14 01:18:32;;;;;;;89.47;14.90;;;11.10;99.90;;;;;;4932404;29;20048;-87
2022/10/14 01:21:36;;;;;;;82.00;15.60;;;11.10;99.90;;;;;;4916956;29;20588;-87
2022/10/14 01:24:17;;;;;;;45.17;14.43;;;11.10;99.90;;;;;;4932763;29;20031;-88
2022/10/14 01:27:00;;;;;;;43.78;13.95;;;11.10;99.90;;;;;;4943685;28;20056;-88
2022/10/14 01:29:45;;;;;;;94.03;16.23;;;11.10;99.90;;;;;;4943916;28;20070;-88
2022/10/14 01:32:19;;;;;;;70.97;13.73;;;11.20;99.90;;;;;;4930943;29;20047;-88
2022/10/14 01:34:54;;;;;;;106.20;16.92;;;11.10;99.90;;;;;;4932409;29;20381;-87
2022/10/14 01:37:23;;;;;;;83.35;17.42;;;11.10;99.90;;;;;;4916728;29;20057;-86
2022/10/14 01:39:58;;;;;;;71.40;16.13;;;11.10;99.90;;;;;;4917701;29;20170;-87
2022/10/14 01:42:28;;;;;;;119.28;20.98;;;11.10;99.90;;;;;;4932808;29;20058;-88
2022/10/14 01:45:03;;;;;;;118.03;18.85;;;11.30;99.90;;;;;;4920823;29;20079;-88
2022/10/14 01:47:31;;;;;;;88.47;16.58;;;11.10;99.90;;;;;;4923513;29;20043;-88
2022/10/14 01:50:02;;;;;;;144.65;19.50;;;11.10;99.90;;;;;;4929041;29;20091;-87
2022/10/14 01:52:33;;;;;;;209.63;21.83;;;11.30;99.90;;;;;;4946655;28;20047;-86
2022/10/14 01:55:05;;;;;;;177.48;20.90;;;11.00;99.90;;;;;;4930142;29;20039;-87
2022/10/14 01:57:34;;;;;;;163.93;21.05;;;11.10;99.90;;;;;;4914359;29;20568;-86
2022/10/14 02:00:14;;;;;;;186.65;20.67;;;11.10;99.90;;;;;;4910506;29;20074;-88
2022/10/14 02:02:40;;;;;;;221.15;21.45;;;11.10;99.90;;;;;;4916806;29;20079;-88
2022/10/14 02:05:15;;;;;;;264.27;20.88;;;11.10;99.90;;;;;;4927679;29;20062;-87
2022/10/14 02:07:51;;;;;;;244.93;20.45;;;11.00;99.90;;;;;;4915818;29;20070;-88
2022/10/14 02:10:32;;;;;;;105.35;18.48;;;11.10;99.90;;;;;;4941427;28;20500;-85
2022/10/14 02:13:19;;;;;;;182.77;20.35;;;11.00;99.90;;;;;;4941223;28;20063;-88
2022/10/14 02:16:03;;;;;;;170.68;19.80;;;11.10;99.90;;;;;;4929530;29;20036;-87
2022/10/14 02:18:50;;;;;;;155.45;17.77;;;11.10;99.90;;;;;;4920171;29;20054;-87
2022/10/14 02:21:30;;;;;;;133.07;17.80;;;11.10;99.90;;;;;;4946466;28;20028;-86
2022/10/14 02:24:02;;;;;;;91.63;17.55;;;11.10;99.90;;;;;;4931874;29;20046;-87
2022/10/14 02:26:28;;;;;;;128.55;15.40;;;11.10;99.90;;;;;;4919036;29;20075;-86
2022/10/14 02:28:56;;;;;;;135.93;16.88;;;11.30;99.90;;;;;;4913683;29;20516;-87
2022/10/14 02:31:23;;;;;;;114.13;15.55;;;11.30;99.90;;;;;;4930837;29;20501;-87
2022/10/14 02:33:52;;;;;;;103.18;15.20;;;11.10;99.90;;;;;;4941291;28;20504;-88
2022/10/14 02:36:21;;;;;;;130.82;16.67;;;11.10;99.90;;;;;;4911059;29;20047;-88
2022/10/14 02:38:48;;;;;;;127.05;16.35;;;11.00;99.90;;;;;;4942523;28;20055;-87
2022/10/14 02:41:18;;;;;;;115.03;15.30;;;11.00;99.90;;;;;;4913421;29;20043;-87
2022/10/14 02:43:44;;;;;;;175.93;17.15;;;11.20;99.90;;;;;;4941525;28;20040;-88
2022/10/14 02:46:10;;;;;;;194.20;16.50;;;11.10;99.90;;;;;;4927389;29;20074;-86
2022/10/14 02:48:35;;;;;;;170.70;16.85;;;11.00;99.90;;;;;;4916853;29;20071;-88
2022/10/14 02:51:01;;;;;;;134.00;15.52;;;11.00;99.90;;;;;;4903347;29;20047;-88
2022/10/14 02:53:26;;;;;;;121.68;15.95;;;11.00;99.90;;;;;;4920057;29;20043;-87
2022/10/14 02:55:52;;;;;;;204.75;16.58;;;11.00;99.90;;;;;;4913971;29;20040;-88
2022/10/14 02:58:19;;;;;;;153.20;18.02;;;11.00;99.90;;;;;;4934221;29;20047;-88
2022/10/14 03:00:48;;;;;;;143.48;16.38;;;11.10;99.90;;;;;;4919685;29;20039;-87
2022/10/14 03:03:13;;;;;;;130.20;15.27;;;11.00;99.90;;;;;;4914844;29;20036;-88
2022/10/14 03:05:39;;;;;;;170.70;14.57;;;11.60;99.90;;;;;;4934946;29;20039;-87
2022/10/14 03:08:05;;;;;;;160.10;14.52;;;11.00;99.90;;;;;;4907157;29;20047;-88
2022/10/14 03:10:30;;;;;;;170.55;14.40;;;11.20;99.90;;;;;;4902395;29;20095;-87
2022/10/14 03:12:56;;;;;;;160.43;16.15;;;10.90;99.90;;;;;;4931642;29;20485;-88
2022/10/14 03:15:22;;;;;;;132.70;15.18;;;10.90;99.90;;;;;;4917185;29;20047;-87
2022/10/14 03:17:48;;;;;;;95.35;15.63;;;11.00;99.90;;;;;;4948703;28;20555;-87
2022/10/14 03:20:14;;;;;;;164.70;16.05;;;11.00;99.90;;;;;;4908561;29;20077;-87
2022/10/14 03:22:41;;;;;;;138.73;16.15;;;11.80;99.90;;;;;;4919745;29;20047;-87
2022/10/14 03:25:07;;;;;;;81.93;15.05;;;10.90;99.90;;;;;;4914940;29;20035;-87
2022/10/14 03:27:32;;;;;;;148.98;16.13;;;11.00;99.90;;;;;;4948140;28;20456;-87
2022/10/14 03:29:58;;;;;;;134.98;17.85;;;11.00;99.90;;;;;;4917347;29;20082;-86
2022/10/14 03:32:24;;;;;;;143.30;18.48;;;11.00;99.90;;;;;;4916687;29;20521;-87
2022/10/14 03:34:52;;;;;;;137.50;16.48;;;11.00;99.90;;;;;;4913790;29;20043;-86
2022/10/14 03:37:18;;;;;;;181.38;21.60;;;11.00;99.90;;;;;;4929911;29;20046;-87
2022/10/14 03:39:43;;;;;;;218.20;24.08;;;11.00;99.90;;;;;;4919440;29;20043;-87
2022/10/14 03:42:09;;;;;;;156.73;22.15;;;11.00;99.90;;;;;;4943337;28;20039;-86
2022/10/14 03:44:34;;;;;;;141.40;23.55;;;11.00;99.90;;;;;;4933357;29;20095;-87
2022/10/14 03:47:00;;;;;;;180.68;24.23;;;11.00;99.90;;;;;;4933466;29;20047;-87
2022/10/14 03:49:25;;;;;;;157.52;26.48;;;11.00;99.90;;;;;;4948797;28;20535;-88
2022/10/14 03:51:51;;;;;;;111.43;23.15;;;11.00;99.90;;;;;;4947787;28;20063;-87
2022/10/14 03:54:16;;;;;;;140.27;23.25;;;11.00;99.90;;;;;;4930047;29;20043;-86
2022/10/14 03:56:42;;;;;;;100.40;24.67;;;11.00;99.90;;;;;;4900683;29;20130;-87
2022/10/14 03:59:07;;;;;;;69.82;25.50;;;11.00;99.90;;;;;;4905502;28;20043;-86
2022/10/14 04:01:33;;;;;;;79.63;27.15;;;11.00;99.90;;;;;;4900852;29;20040;-87
2022/10/14 04:03:59;;;;;;;114.20;28.80;;;11.00;99.90;;;;;;4945458;28;20046;-87
2022/10/14 04:06:25;;;;;;;103.07;29.40;;;10.90;99.90;;;;;;4920873;29;20040;-87
2022/10/14 04:08:50;;;;;;;122.03;28.60;;;11.00;99.90;;;;;;4932971;29;20039;-87
2022/10/14 04:11:16;;;;;;;188.05;27.70;;;10.90;99.90;;;;;;4905038;29;20085;-87
2022/10/14 04:13:42;;;;;;;154.23;27.90;;;10.90;99.90;;;;;;4944720;28;20047;-86
2022/10/14 04:16:09;;;;;;;187.60;24.35;;;10.90;99.90;;;;;;4901861;29;20123;-87
2022/10/14 04:18:35;;;;;;;156.90;21.02;;;10.90;99.90;;;;;;4915593;29;20181;-87
2022/10/14 04:21:06;;;;;;;212.73;24.10;;;10.80;99.90;;;;;;4901614;29;20097;-88
2022/10/14 04:23:32;;;;;;;204.05;22.17;;;10.80;99.90;;;;;;4945160;28;20056;-88
2022/10/14 04:25:57;;;;;;;182.60;20.58;;;10.80;99.90;;;;;;4945320;28;20131;-86
2022/10/14 04:28:23;;;;;;;184.27;20.55;;;10.80;99.90;;;;;;4917935;29;20046;-87
2022/10/14 04:30:49;;;;;;;114.00;20.15;;;10.80;99.90;;;;;;4929178;29;20051;-87
2022/10/14 04:33:14;;;;;;;174.25;21.83;;;10.80;99.90;;;;;;4928040;29;20040;-86
2022/10/14 04:35:40;;;;;;;154.68;22.80;;;10.80;99.90;;;;;;4940110;28;20150;-87
2022/10/14 04:38:05;;;;;;;166.45;24.17;;;10.80;99.90;;;;;;4911659;29;20051;-87
2022/10/14 04:40:31;;;;;;;176.43;24.17;;;10.80;99.90;;;;;;4906903;29;20043;-86
2022/10/14 04:43:00;;;;;;;140.35;24.13;;;10.80;99.90;;;;;;4902715;29;20043;-87
2022/10/14 04:45:26;;;;;;;146.60;25.83;;;10.80;99.90;;;;;;4917792;29;20051;-88
2022/10/14 04:47:51;;;;;;;388.58;40.13;;;10.80;99.90;;;;;;4900321;29;20503;-87
2022/10/14 04:50:18;;;;;;;117.90;26.63;;;10.90;99.90;;;;;;4928927;29;20044;-85
2022/10/14 04:52:44;;;;;;;132.77;27.88;;;10.90;99.90;;;;;;4926667;29;20459;-85
2022/10/14 04:55:10;;;;;;;157.32;28.90;;;10.90;99.90;;;;;;4890161;29;20051;-87
2022/10/14 04:57:38;;;;;;;114.03;28.75;;;10.90;99.90;;;;;;4913186;29;20167;-86
2022/10/14 05:00:07;;;;;;;102.95;27.95;;;10.90;99.90;;;;;;4897528;29;20031;-85
2022/10/14 05:02:33;;;;;;;182.00;32.17;;;10.80;99.90;;;;;;4927167;29;20054;-86
2022/10/14 05:04:58;;;;;;;109.70;28.65;;;10.90;99.90;;;;;;4899226;29;20040;-86
2022/10/14 05:07:36;;;;;;;131.00;29.55;;;10.80;99.90;;;;;;4899842;29;20043;-86
2022/10/14 05:10:03;;;;;;;211.45;32.90;;;10.90;99.90;;;;;;4897380;29;20046;-85
2022/10/14 05:12:29;;;;;;;175.23;31.30;;;10.80;99.90;;;;;;4928488;29;20040;-85
2022/10/14 05:14:55;;;;;;;202.52;33.20;;;10.90;99.90;;;;;;4926981;29;20039;-86
2022/10/14 05:17:22;;;;;;;130.50;31.45;;;10.90;99.90;;;;;;4924271;29;20040;-83
2022/10/14 05:19:48;;;;;;;124.63;30.83;;;10.90;99.90;;;;;;4931035;29;20439;-86
2022/10/14 05:22:14;;;;;;;116.13;30.90;;;11.10;99.90;;;;;;4901772;29;20035;-85
2022/10/14 05:24:39;;;;;;;128.07;30.58;;;10.90;99.90;;;;;;4940802;28;20048;-86
2022/10/14 05:27:05;;;;;;;162.32;32.97;;;10.90;99.90;;;;;;4911382;29;20052;-86
2022/10/14 05:29:30;;;;;;;159.73;32.10;;;11.00;99.90;;;;;;4943721;28;20074;-85
2022/10/14 05:31:56;;;;;;;147.93;34.20;;;10.90;99.90;;;;;;4910245;29;20035;-85
2022/10/14 05:34:22;;;;;;;229.50;34.67;;;11.00;99.90;;;;;;4943502;28;20130;-85
2022/10/14 05:36:47;;;;;;;201.88;35.95;;;10.90;99.90;;;;;;4915507;29;20043;-86
2022/10/14 05:39:13;;;;;;;140.40;33.75;;;11.00;99.90;;;;;;4942900;28;20032;-84
2022/10/14 05:41:38;;;;;;;132.13;32.50;;;10.90;99.90;;;;;;4917387;29;20047;-84
2022/10/14 05:44:05;;;;;;;163.82;33.50;;;11.00;99.90;;;;;;4927947;29;20036;-83
2022/10/14 05:46:30;;;;;;;292.00;40.85;;;11.00;99.90;;;;;;4912399;29;20074;-84
2022/10/14 05:48:56;;;;;;;201.45;35.00;;;11.00;99.90;;;;;;4932811;29;20075;-85
2022/10/14 05:51:22;;;;;;;132.43;32.13;;;11.00;99.90;;;;;;4918451;29;20071;-84
2022/10/14 05:53:48;;;;;;;279.58;36.50;;;11.00;99.90;;;;;;4911216;29;20067;-84
2022/10/14 05:56:14;;;;;;;145.82;29.65;;;11.00;99.90;;;;;;4902853;29;20074;-84
2022/10/14 05:58:40;;;;;;;79.22;25.33;;;11.00;99.90;;;;;;4940929;28;20074;-83
2022/10/14 06:01:07;;;;;;;111.65;26.17;;;11.00;99.90;;;;;;4916287;29;20505;-86
2022/10/14 06:03:33;;;;;;;116.65;27.75;;;11.00;99.90;;;;;;4929605;29;20054;-85
2022/10/14 06:05:59;;;;;;;103.20;26.20;;;11.00;99.90;;;;;;4929062;29;20044;-84
2022/10/14 06:08:26;;;;;;;98.28;27.48;;;11.00;99.90;;;;;;4928386;29;20118;-86
2022/10/14 06:10:51;;;;;;;97.85;26.67;;;11.00;99.90;;;;;;4915920;29;20043;-85
2022/10/14 06:13:17;;;;;;;118.85;28.48;;;11.00;99.90;;;;;;4939604;28;20051;-86
2022/10/14 06:15:43;;;;;;;112.63;29.40;;;11.00;99.90;;;;;;4932232;29;20031;-86
2022/10/14 06:18:09;;;;;;;114.72;30.15;;;11.00;99.90;;;;;;4912381;29;20055;-85
2022/10/14 06:20:35;;;;;;;90.93;31.08;;;11.10;99.90;;;;;;4915920;29;20122;-85
2022/10/14 06:23:01;;;;;;;147.63;35.15;;;11.00;99.90;;;;;;4944391;28;20047;-85
2022/10/14 06:25:27;;;;;;;85.82;30.23;;;11.00;99.90;;;;;;4944577;28;20087;-85
2022/10/14 06:27:52;;;;;;;72.93;29.13;;;11.00;99.90;;;;;;4895486;29;20214;-86
2022/10/14 06:30:18;;;;;;;134.60;35.60;;;11.10;99.90;;;;;;4944816;28;20083;-86
2022/10/14 06:32:44;;;;;;;74.07;30.35;;;11.40;99.90;;;;;;4910573;29;20043;-86
2022/10/14 06:35:10;;;;;;;98.25;31.02;;;11.10;99.90;;;;;;4944246;28;20444;-86
2022/10/14 06:37:36;;;;;;;130.52;34.47;;;11.10;99.90;;;;;;4901452;29;20070;-86
2022/10/14 06:40:01;;;;;;;83.97;30.48;;;11.10;99.90;;;;;;4930821;29;20058;-85
2022/10/14 06:42:27;;;;;;;79.93;29.33;;;11.10;99.90;;;;;;4912904;29;20138;-85
2022/10/14 06:44:52;;;;;;;94.70;31.63;;;11.10;99.90;;;;;;4929679;29;20039;-85
2022/10/14 06:47:18;;;;;;;77.05;31.42;;;11.10;99.90;;;;;;4929334;29;20047;-84
2022/10/14 06:49:44;;;;;;;88.45;32.92;;;11.10;99.90;;;;;;4900429;29;20054;-85
2022/10/14 06:52:10;;;;;;;102.13;33.85;;;11.10;99.90;;;;;;4933457;29;20039;-85
2022/10/14 06:54:35;;;;;;;127.60;34.25;;;11.20;99.90;;;;;;4913280;29;20452;-84
2022/10/14 06:57:01;;;;;;;97.78;34.58;;;11.20;99.90;;;;;;4895787;29;20063;-86
2022/10/14 06:59:27;;;;;;;97.78;36.25;;;11.40;99.90;;;;;;4903561;29;20047;-84
2022/10/14 07:01:54;;;;;;;81.97;33.97;;;11.30;99.90;;;;;;4890222;29;20488;-85
2022/10/14 07:04:19;;;;;;;88.82;35.97;;;11.30;99.90;;;;;;4935239;28;20035;-83
2022/10/14 07:06:45;;;;;;;90.15;34.38;;;11.30;99.90;;;;;;4923140;29;20040;-85
2022/10/14 07:09:11;;;;;;;69.28;31.95;;;11.30;99.90;;;;;;4906636;29;20094;-85
2022/10/14 07:11:36;;;;;;;73.85;30.70;;;11.30;99.90;;;;;;4922931;29;20099;-85
2022/10/14 07:14:02;;;;;;;62.25;28.95;;;11.40;99.90;;;;;;4920411;29;20052;-85
2022/10/14 07:16:28;;;;;;;62.42;28.75;;;11.40;99.90;;;;;;4934217;28;20044;-85
2022/10/14 07:18:54;;;;;;;59.83;28.35;;;11.40;99.90;;;;;;4922883;29;20517;-85
2022/10/14 07:21:19;;;;;;;57.08;26.50;;;11.50;99.90;;;;;;4907327;29;20098;-85
2022/10/14 07:23:45;;;;;;;54.15;27.10;;;11.40;99.90;;;;;;4910749;29;20412;-85
2022/10/14 07:26:11;;;;;;;63.65;27.50;;;11.50;99.90;;;;;;4923417;29;20035;-84
2022/10/14 07:28:36;;;;;;;56.47;28.55;;;11.40;99.90;;;;;;4924958;29;20047;-85
2022/10/14 07:31:08;;;;;;;50.25;26.73;;;11.60;99.90;;;;;;4906903;29;20039;-85
2022/10/14 07:33:35;;;;;;;55.97;28.08;;;11.50;99.90;;;;;;4942378;28;20047;-85
2022/10/14 07:36:04;;;;;;;56.40;27.23;;;11.60;99.90;;;;;;4909426;29;20040;-85
2022/10/14 07:38:30;;;;;;;51.88;27.35;;;11.60;99.90;;;;;;4911047;29;20051;-84
2022/10/14 07:41:08;;;;;;;64.38;29.98;;;11.60;99.90;;;;;;4922624;29;20035;-85
2022/10/14 07:43:34;;;;;;;46.15;25.27;;;11.70;99.90;;;;;;4926297;29;20506;-86
2022/10/14 07:46:06;;;;;;;56.00;26.33;;;11.70;99.90;;;;;;4912502;29;20048;-85
2022/10/14 07:48:34;;;;;;;47.47;25.90;;;11.70;99.90;;;;;;4907340;29;21963;-85
2022/10/14 07:51:00;;;;;;;46.05;25.38;;;11.70;99.90;;;;;;4901087;29;20055;-85
2022/10/14 07:53:26;;;;;;;46.10;25.95;;;11.80;99.90;;;;;;4913335;29;20051;-85
2022/10/14 07:55:52;;;;;;;42.45;25.45;;;11.80;99.90;;;;;;4941549;28;20039;-85
2022/10/14 07:58:23;;;;;;;42.33;25.05;;;11.90;99.90;;;;;;4912190;29;20677;-85
2022/10/14 08:00:49;;;;;;;49.72;25.67;;;11.80;99.90;;;;;;4923182;29;20051;-84
2022/10/14 08:03:16;;;;;;;50.25;26.27;;;11.90;99.90;;;;;;4900059;29;20036;-85
2022/10/14 08:05:42;;;;;;;42.45;24.38;;;11.90;99.90;;;;;;4910603;29;20097;-86
2022/10/14 08:08:08;;;;;;;42.20;25.27;;;11.90;99.90;;;;;;4940275;28;20047;-85
2022/10/14 08:10:35;;;;;;;44.63;25.80;;;12.00;99.90;;;;;;4938985;28;20142;-85
2022/10/14 08:13:01;;;;;;;46.60;26.58;;;12.00;99.90;;;;;;4939817;28;20040;-85
2022/10/14 08:15:29;;;;;;;41.38;25.23;;;12.10;99.90;;;;;;4941367;28;20036;-85
2022/10/14 08:17:55;;;;;;;41.22;26.10;;;12.10;99.90;;;;;;4927920;29;20044;-85
2022/10/14 08:20:21;;;;;;;43.45;27.38;;;12.10;99.90;;;;;;4909363;29;20145;-85
2022/10/14 08:22:47;;;;;;;45.35;27.77;;;12.10;99.90;;;;;;4915195;29;20619;-85
2022/10/14 08:25:13;;;;;;;45.00;27.50;;;12.10;99.90;;;;;;4908707;29;20039;-85
2022/10/14 08:27:38;;;;;;;52.95;29.23;;;12.10;99.90;;;;;;4907756;29;21962;-85
2022/10/14 08:30:04;;;;;;;58.67;30.45;;;12.10;99.90;;;;;;4925129;29;20401;-84
2022/10/14 08:32:30;;;;;;;38.67;25.65;;;12.10;99.90;;;;;;4893953;29;20031;-85
2022/10/14 08:34:56;;;;;;;46.92;27.40;;;12.10;99.90;;;;;;4890441;29;20039;-85
2022/10/14 08:37:22;;;;;;;50.15;29.38;;;12.10;99.90;;;;;;4939711;28;20142;-84
2022/10/14 08:39:48;;;;;;;47.10;28.08;;;12.10;99.90;;;;;;4927039;29;20062;-85
2022/10/14 08:42:19;;;;;;;53.33;28.35;;;12.20;99.90;;;;;;4899939;29;20036;-85
2022/10/14 08:44:52;;;;;;;52.28;29.75;;;12.10;99.90;;;;;;4921252;29;20050;-85
2022/10/14 08:47:23;;;;;;;43.35;26.02;;;12.10;99.90;;;;;;4937079;28;20754;-85
2022/10/14 08:50:03;;;;;;;50.28;28.20;;;12.20;99.90;;;;;;4926526;29;20050;-84
2022/10/14 08:52:47;;;;;;;58.00;30.00;;;12.30;99.90;;;;;;4913139;29;20039;-85
2022/10/14 08:55:26;;;;;;;50.58;29.17;;;12.30;99.90;;;;;;4923344;29;20054;-85
2022/10/14 08:58:11;;;;;;;48.42;27.73;;;12.30;99.90;;;;;;4925675;29;20052;-84
2022/10/14 09:00:39;;;;;;;48.75;28.65;;;12.60;99.90;;;;;;4907107;29;20511;-85
2022/10/14 09:03:21;;;;;;;48.40;29.48;;;12.30;99.90;;;;;;4941946;28;20508;-83
2022/10/14 09:05:57;;;;;;;51.25;28.65;;;12.30;99.90;;;;;;4943481;28;21991;-86
2022/10/14 09:08:32;;;;;;;51.08;29.80;;;12.40;99.90;;;;;;4912662;29;20043;-85
2022/10/14 09:10:58;;;;;;;63.67;33.05;;;12.50;99.90;;;;;;4909538;29;20590;-85
2022/10/14 09:13:28;;;;;;;57.15;31.05;;;12.50;99.90;;;;;;4941363;28;20404;-85
2022/10/14 09:16:00;;;;;;;59.85;32.10;;;12.50;99.90;;;;;;4939134;28;20597;-85
2022/10/14 09:18:44;;;;;;;47.63;29.50;;;12.60;99.90;;;;;;4926608;29;20047;-85
2022/10/14 09:21:37;;;;;;;65.00;31.85;;;12.60;99.90;;;;;;4907159;29;20032;-85
2022/10/14 09:24:15;;;;;;;47.45;27.20;;;12.60;99.90;;;;;;4904857;29;20051;-85
2022/10/14 09:26:49;;;;;;;54.55;29.42;;;12.60;99.90;;;;;;4940829;28;20100;-85
2022/10/14 09:29:44;;;;;;;47.13;28.70;;;12.60;99.90;;;;;;4939274;28;20134;-85
2022/10/14 09:32:27;;;;;;;49.55;28.17;;;12.60;99.90;;;;;;4940491;28;20039;-84
2022/10/14 09:34:54;;;;;;;48.92;26.38;;;12.60;99.90;;;;;;4940882;28;20488;-85
2022/10/14 09:37:32;;;;;;;62.75;28.75;;;12.60;99.90;;;;;;4942372;28;20082;-85
2022/10/14 09:40:23;;;;;;;58.13;27.88;;;12.60;99.90;;;;;;4923671;29;20612;-85
2022/10/14 09:43:05;;;;;;;52.40;27.42;;;12.60;99.90;;;;;;4902308;29;20179;-84
2022/10/14 09:46:06;;;;;;;48.33;26.80;;;12.60;99.90;;;;;;4906399;29;20051;-84
2022/10/14 09:48:43;;;;;;;50.92;26.55;;;12.70;99.90;;;;;;4907003;29;20095;-86
2022/10/14 09:51:31;;;;;;;48.47;25.10;;;12.60;99.90;;;;;;4895271;29;20381;-86
2022/10/14 09:54:00;;;;;;;46.40;23.60;;;12.60;99.90;;;;;;4909727;29;20140;-85
2022/10/14 09:56:35;;;;;;;50.22;24.38;;;12.60;99.90;;;;;;4907472;29;20091;-86
2022/10/14 09:59:15;;;;;;;54.10;24.60;;;12.60;99.90;;;;;;4907498;29;20135;-86
2022/10/14 10:02:04;;;;;;;47.25;23.75;;;12.70;99.90;;;;;;4912631;29;20039;-86
2022/10/14 10:04:32;;;;;;;49.30;24.25;;;12.60;99.90;;;;;;4929062;29;20053;-86
2022/10/14 10:07:27;;;;;;;51.28;24.33;;;12.60;99.90;;;;;;4942983;28;20493;-86
2022/10/14 10:10:00;;;;;;;46.10;24.15;;;12.60;99.90;;;;;;4941302;28;20047;-85
2022/10/14 10:12:40;;;;;;;45.15;23.70;;;12.70;99.90;;;;;;4915501;29;20052;-86
2022/10/14 10:15:06;;;;;;;54.67;25.13;;;12.60;99.90;;;;;;4933238;29;20127;-87
2022/10/14 10:17:34;;;;;;;50.72;25.35;;;12.60;99.90;;;;;;4943727;28;20122;-86
2022/10/14 10:20:06;;;;;;;54.78;24.70;;;12.70;99.90;;;;;;4943145;28;20039;-86
2022/10/14 10:22:37;;;;;;;56.20;25.67;;;12.70;99.90;;;;;;4944546;28;20043;-86
2022/10/14 10:25:28;;;;;;;51.85;25.38;;;12.70;99.90;;;;;;4933502;29;20167;-86
2022/10/14 10:27:58;;;;;;;47.65;24.63;;;12.70;99.90;;;;;;4910627;29;20048;-85
2022/10/14 10:30:55;;;;;;;52.45;24.92;;;12.70;99.90;;;;;;4898235;29;20032;-85
2022/10/14 10:34:20;;;;;;;45.72;22.60;;;12.70;99.90;;;;;;4920373;29;20103;-86
2022/10/14 10:36:52;;;;;;;46.30;24.30;;;12.80;99.90;;;;;;4918392;29;20061;-86
2022/10/14 10:39:49;;;;;;;52.53;23.63;;;12.80;99.90;;;;;;4931961;29;20626;-86
2022/10/14 10:42:41;;;;;;;54.35;25.25;;;12.80;99.90;;;;;;4912192;29;20066;-85
2022/10/14 10:45:14;;;;;;;42.00;21.33;;;12.90;99.90;;;;;;4925832;29;20043;-86
2022/10/14 10:48:19;;;;;;;43.00;21.20;;;12.90;99.90;;;;;;4907761;29;20047;-86
2022/10/14 10:50:45;;;;;;;36.92;19.08;;;12.90;99.90;;;;;;4912065;29;20055;-86
2022/10/14 10:53:44;;;;;;;37.85;19.02;;;12.90;99.90;;;;;;4923918;29;20396;-86
2022/10/14 10:56:44;;;;;;;35.00;17.67;;;12.90;99.90;;;;;;4925457;29;20539;-86
2022/10/14 10:59:32;;;;;;;31.23;15.98;;;12.90;99.90;;;;;;4901115;29;20048;-85
2022/10/14 11:02:22;;;;;;;34.30;15.90;;;12.90;99.90;;;;;;4923729;29;20044;-84
2022/10/14 11:05:02;;;;;;;33.92;16.00;;;13.00;99.90;;;;;;4903901;29;20040;-84
2022/10/14 11:14:45;;;;;;;30.65;15.40;;;13.10;99.90;;;;;;4920324;29;20672;-84
2022/10/14 11:17:41;;;;;;;32.83;15.27;;;13.10;99.90;;;;;;4891746;29;20068;-84
2022/10/14 11:20:35;;;;;;;27.50;14.45;;;13.10;99.90;;;;;;4941149;28;20492;-85
2022/10/14 11:23:23;;;;;;;24.35;13.75;;;13.10;99.90;;;;;;4941264;28;20040;-83
2022/10/14 11:25:59;;;;;;;32.20;16.52;;;13.10;99.90;;;;;;4916964;29;20288;-84
2022/10/14 11:28:40;;;;;;;29.23;16.15;;;13.10;99.90;;;;;;4940021;28;20048;-84
2022/10/14 11:31:51;;;;;;;33.50;17.08;;;13.10;99.90;;;;;;4929712;29;20674;-86
2022/10/14 11:34:41;;;;;;;30.15;15.70;;;13.20;99.90;;;;;;4871051;29;20045;-85
2022/10/14 11:37:27;;;;;;;32.72;16.95;;;13.20;99.90;;;;;;4842323;29;20064;-85
2022/10/14 11:40:13;;;;;;;33.65;16.55;;;13.20;99.90;;;;;;4878329;29;20540;-85
2022/10/14 11:42:50;;;;;;;32.20;17.63;;;13.20;99.90;;;;;;4930464;29;20071;-85
2022/10/14 11:45:27;;;;;;;27.70;16.95;;;13.30;99.90;;;;;;4911198;29;20111;-83
2022/10/14 11:48:00;;;;;;;34.83;19.38;;;13.30;99.90;;;;;;4925279;29;20441;-84
2022/10/14 11:50:35;;;;;;;33.17;18.92;;;13.30;99.90;;;;;;4943234;28;20369;-83
2022/10/14 11:53:13;;;;;;;39.00;21.05;;;13.40;99.90;;;;;;4896585;29;20036;-85
2022/10/14 11:55:44;;;;;;;40.28;20.58;;;13.50;99.90;;;;;;4898711;29;20314;-85
2022/10/14 11:58:22;;;;;;;37.08;21.42;;;13.50;99.90;;;;;;4943117;28;20054;-86
2022/10/14 12:00:51;;;;;;;47.15;25.20;;;13.50;99.90;;;;;;4911990;29;20499;-85
2022/10/14 12:03:52;;;;;;;47.63;24.27;;;13.50;99.90;;;;;;4928166;29;20043;-85
2022/10/14 12:06:28;;;;;;;44.47;25.20;;;13.60;99.90;;;;;;4942926;28;20158;-84
2022/10/14 12:09:13;;;;;;;46.50;24.70;;;13.60;99.90;;;;;;4924249;29;20048;-85
2022/10/14 12:11:48;;;;;;;45.45;25.23;;;13.60;99.90;;;;;;4923945;29;20110;-85
2022/10/14 12:14:32;;;;;;;52.25;26.95;;;13.70;99.90;;;;;;4925788;29;20492;-85
2022/10/14 12:17:00;;;;;;;57.97;28.17;;;13.70;99.90;;;;;;4912268;29;20519;-84
2022/10/14 12:19:28;;;;;;;56.50;28.90;;;13.70;99.90;;;;;;4940093;28;20051;-85
2022/10/14 12:22:08;;;;;;;59.03;29.52;;;13.70;99.90;;;;;;4926311;28;20039;-84
2022/10/14 12:24:40;;;;;;;43.03;26.90;;;13.80;99.90;;;;;;4915115;29;20050;-84
2022/10/14 12:27:11;;;;;;;53.75;28.75;;;13.90;99.90;;;;;;4894834;29;20095;-84
2022/10/14 12:29:44;;;;;;;51.67;29.52;;;13.90;99.90;;;;;;4942297;28;20138;-85
2022/10/14 12:32:21;;;;;;;54.80;28.88;;;13.90;99.90;;;;;;4914739;29;20492;-85
2022/10/14 12:34:49;;;;;;;52.22;28.42;;;13.90;99.90;;;;;;4936297;28;20052;-83
2022/10/14 12:37:23;;;;;;;61.75;30.40;;;14.00;99.90;;;;;;4910665;29;20063;-83
2022/10/14 12:40:12;;;;;;;51.67;29.60;;;14.00;99.90;;;;;;4927184;29;20060;-83
2022/10/14 12:42:59;;;;;;;49.55;28.92;;;14.10;99.90;;;;;;4892713;29;20083;-84
2022/10/14 12:45:30;;;;;;;53.83;29.95;;;14.10;99.90;;;;;;4939652;28;20051;-83
2022/10/14 12:48:14;;;;;;;55.35;29.05;;;14.10;99.90;;;;;;4892721;29;20040;-84
2022/10/14 12:50:42;;;;;;;48.92;28.10;;;14.20;99.90;;;;;;4923856;29;20556;-84
2022/10/14 12:53:21;;;;;;;45.20;27.35;;;14.20;99.90;;;;;;4915504;29;20035;-84
2022/10/14 12:55:53;;;;;;;41.47;26.35;;;14.30;99.90;;;;;;4892709;29;20060;-85